NCAR-RAP Real-Time Weather Data

Output produced by METARs form (18 January 2019  00:07 UTC)
found at http://weather.rap.ucar.edu/surface/
 
Conditions at: KSPI observed 17 January 2019  23:52 UTC
Temperature: 0.6°C (33°F)
Dewpoint: -0.6°C (31°F) [RH = 92%]
Pressure (altimeter): 30.08 inches Hg (1018.7 mb)
[Sea-level pressure: 1019.1 mb]
Winds: from the NW (310 degrees) at 7 MPH (6 knots; 3.1 m/s)
Visibility: 9 miles (14 km)
Ceiling: 700 feet AGL
Clouds: overcast cloud deck at 700 feet AGL
Present Weather: no significant weather observed at this time
KSPI 172352Z 31006KT 9SM OVC007 01/M01 A3008 RMK AO2 SLP191 T00061006 10022 20006 52014